createdAt,value
2022-10-20T00:00:50.396Z,4.95
2022-10-20T00:02:52.749Z,4.47
2022-10-20T00:04:54.851Z,4.43
2022-10-20T00:06:56.950Z,4.40
2022-10-20T00:09:03.874Z,4.40
2022-10-20T00:11:06.547Z,4.00
2022-10-20T00:13:08.815Z,4.00
2022-10-20T00:17:12.922Z,3.75
2022-10-20T00:19:15.045Z,3.83
2022-10-20T00:23:21.171Z,3.53
2022-10-20T00:25:23.242Z,2.95
2022-10-20T00:27:25.238Z,2.85
2022-10-20T00:29:27.235Z,2.78
2022-10-20T00:31:30.363Z,2.63
2022-10-20T00:33:33.369Z,2.83
2022-10-20T00:35:38.694Z,2.40
2022-10-20T00:37:40.729Z,2.42
2022-10-20T00:39:42.814Z,2.78
2022-10-20T00:41:44.856Z,2.90
2022-10-20T00:45:59.540Z,2.60
2022-10-20T00:48:14.504Z,2.63
2022-10-20T00:50:29.768Z,2.97
2022-10-20T00:52:32.504Z,2.63
2022-10-20T00:54:35.002Z,2.00
2022-10-20T00:58:43.963Z,2.22
2022-10-20T01:00:48.610Z,2.90
2022-10-20T01:02:53.104Z,2.50
2022-10-20T01:04:55.161Z,2.60
2022-10-20T01:06:58.098Z,2.22
2022-10-20T01:09:00.891Z,2.75
2022-10-20T01:11:18.297Z,2.35
2022-10-20T01:14:02.819Z,2.55
2022-10-20T01:16:45.997Z,2.47
2022-10-20T01:19:23.580Z,2.28
2022-10-20T01:21:43.523Z,2.20
2022-10-20T01:24:12.965Z,2.03
2022-10-20T01:26:36.650Z,2.10
2022-10-20T01:28:55.235Z,2.20
2022-10-20T01:31:00.328Z,2.05
2022-10-20T01:33:16.594Z,2.20
2022-10-20T01:35:25.707Z,1.95
2022-10-20T01:37:34.516Z,2.10
2022-10-20T01:39:54.979Z,1.92
2022-10-20T01:42:04.296Z,1.83
2022-10-20T01:44:11.493Z,2.45
2022-10-20T01:46:15.911Z,2.55
2022-10-20T01:48:21.845Z,2.40
2022-10-20T01:50:25.138Z,1.90
2022-10-20T01:52:29.288Z,2.33
2022-10-20T01:54:31.507Z,1.90
2022-10-20T01:56:51.775Z,2.30
2022-10-20T01:59:14.743Z,2.10
2022-10-20T02:03:46.925Z,2.67
2022-10-20T02:06:08.044Z,2.28
2022-10-20T02:08:26.628Z,2.30
2022-10-20T02:10:37.180Z,2.60
2022-10-20T02:12:43.736Z,2.53
2022-10-20T02:15:08.301Z,2.30
2022-10-20T02:17:15.526Z,2.58
2022-10-20T02:19:21.137Z,1.98
2022-10-20T02:21:23.474Z,2.50
2022-10-20T02:23:25.593Z,2.70
2022-10-20T02:25:30.614Z,3.10
2022-10-20T02:27:37.576Z,2.17
2022-10-20T02:29:45.162Z,2.67
2022-10-20T02:31:47.804Z,2.60
2022-10-20T02:33:50.700Z,2.97
2022-10-20T02:35:58.162Z,2.72
2022-10-20T02:38:00.802Z,3.42
2022-10-20T02:40:03.345Z,3.50
2022-10-20T02:42:06.409Z,2.80
2022-10-20T02:44:08.516Z,2.72
2022-10-20T02:46:10.996Z,2.35
2022-10-20T02:50:14.947Z,2.72
2022-10-20T02:52:17.049Z,2.80
2022-10-20T02:54:19.296Z,1.88
2022-10-20T02:56:24.492Z,2.20
2022-10-20T02:58:28.725Z,2.60
2022-10-20T03:00:31.345Z,2.72
2022-10-20T03:02:33.778Z,2.60
2022-10-20T03:06:37.745Z,2.05
2022-10-20T03:08:39.854Z,2.13
2022-10-20T03:10:42.923Z,2.13
2022-10-20T03:12:45.078Z,2.00
2022-10-20T03:14:47.111Z,1.92
2022-10-20T03:16:49.118Z,2.03
2022-10-20T03:18:51.514Z,1.98
2022-10-20T03:20:54.562Z,1.75
2022-10-20T03:22:56.620Z,2.00
2022-10-20T03:24:58.660Z,1.65
2022-10-20T03:27:00.747Z,1.73
2022-10-20T03:29:02.937Z,1.98
2022-10-20T03:31:05.191Z,2.05
2022-10-20T03:33:07.261Z,1.58
2022-10-20T03:35:09.907Z,2.10
2022-10-20T03:37:12.075Z,1.75
2022-10-20T03:39:14.093Z,1.60
2022-10-20T03:41:16.729Z,1.70
2022-10-20T03:43:18.839Z,2.53
2022-10-20T03:45:30.434Z,2.10
2022-10-20T03:47:32.474Z,1.67
2022-10-20T03:49:34.714Z,1.52
2022-10-20T03:51:36.812Z,1.90
2022-10-20T03:53:38.831Z,1.90
2022-10-20T03:55:40.896Z,2.50
2022-10-20T03:57:43.453Z,2.30
2022-10-20T03:59:45.627Z,2.40
2022-10-20T04:01:50.508Z,2.35
2022-10-20T04:03:52.795Z,2.60
2022-10-20T04:05:58.131Z,2.42
2022-10-20T04:08:00.225Z,1.95
2022-10-20T04:10:02.483Z,1.90
2022-10-20T04:12:05.602Z,2.70
2022-10-20T04:14:07.770Z,2.65
2022-10-20T04:16:10.114Z,2.60
2022-10-20T04:18:12.232Z,3.13
2022-10-20T04:20:14.332Z,3.28
2022-10-20T04:22:16.588Z,3.10
2022-10-20T04:24:18.710Z,3.50
2022-10-20T04:26:20.780Z,3.00
2022-10-20T04:28:22.929Z,3.22
2022-10-20T04:30:24.940Z,3.80
2022-10-20T04:32:27.067Z,3.45
2022-10-20T04:34:29.217Z,3.60
2022-10-20T04:36:31.422Z,4.93
2022-10-20T04:38:34.638Z,4.60
2022-10-20T04:40:36.784Z,4.65
2022-10-20T04:42:38.830Z,4.70
2022-10-20T04:44:40.953Z,4.70
2022-10-20T04:46:43.109Z,4.82
2022-10-20T04:48:45.832Z,5.07
2022-10-20T04:50:47.953Z,6.20
2022-10-20T04:52:51.446Z,6.28
2022-10-20T04:54:53.639Z,6.47
2022-10-20T04:56:56.356Z,6.28
2022-10-20T04:58:59.562Z,5.38
2022-10-20T05:01:09.754Z,6.43
2022-10-20T05:03:12.369Z,5.20
2022-10-20T05:05:14.613Z,4.97
2022-10-20T05:07:17.296Z,4.38
2022-10-20T05:09:19.422Z,4.28
2022-10-20T05:11:23.642Z,4.57
2022-10-20T05:13:26.025Z,3.85
2022-10-20T05:15:28.191Z,4.30
2022-10-20T05:17:31.133Z,3.97
2022-10-20T05:19:33.154Z,4.80
2022-10-20T05:21:35.593Z,4.30
2022-10-20T05:25:41.657Z,4.55
2022-10-20T05:27:43.717Z,5.40
2022-10-20T05:29:45.808Z,5.80
2022-10-20T05:31:50.622Z,5.50
2022-10-20T05:33:56.919Z,6.20
2022-10-20T05:35:59.242Z,6.75
2022-10-20T05:38:01.305Z,5.78
2022-10-20T05:40:05.583Z,6.32
2022-10-20T05:42:10.167Z,6.30
2022-10-20T05:44:13.272Z,6.43
2022-10-20T05:46:15.715Z,6.25
2022-10-20T05:48:17.846Z,7.28
2022-10-20T05:50:19.919Z,7.78
2022-10-20T05:52:22.628Z,7.30
2022-10-20T05:54:24.788Z,7.97
2022-10-20T05:56:28.364Z,17.90
2022-10-20T05:58:30.699Z,7.20
2022-10-20T06:00:41.829Z,7.80
2022-10-20T06:02:44.280Z,8.00
2022-10-20T06:06:49.223Z,8.90
2022-10-20T06:08:51.572Z,9.25
2022-10-20T06:12:59.059Z,8.82
2022-10-20T06:15:01.370Z,9.18
2022-10-20T06:17:05.136Z,8.40
2022-10-20T06:19:07.440Z,8.23
2022-10-20T06:21:16.048Z,9.10
2022-10-20T06:23:18.111Z,9.68
2022-10-20T06:25:22.504Z,8.30
2022-10-20T06:27:28.939Z,9.25
2022-10-20T06:29:33.955Z,9.27
2022-10-20T06:31:41.783Z,8.40
2022-10-20T06:33:44.850Z,8.68
2022-10-20T06:35:47.257Z,8.63
2022-10-20T06:37:51.870Z,7.47
2022-10-20T06:39:53.856Z,5.90
2022-10-20T06:41:56.022Z,6.60
2022-10-20T06:46:02.509Z,5.07
2022-10-20T06:48:05.130Z,5.70
2022-10-20T06:50:07.918Z,5.60
2022-10-20T06:54:22.000Z,5.53
2022-10-20T06:56:25.857Z,5.22
2022-10-20T06:58:29.152Z,4.82
2022-10-20T07:00:31.773Z,5.22
2022-10-20T07:02:39.576Z,5.47
2022-10-20T07:04:41.898Z,4.93
2022-10-20T07:06:47.193Z,4.07
2022-10-20T07:08:51.186Z,4.72
2022-10-20T07:11:05.220Z,4.10
2022-10-20T07:13:07.243Z,4.18
2022-10-20T07:15:09.749Z,3.88
2022-10-20T07:17:13.305Z,4.07
2022-10-20T07:19:15.449Z,3.72
2022-10-20T07:21:21.035Z,3.65
2022-10-20T07:23:25.028Z,3.30
2022-10-20T07:25:27.218Z,3.67
2022-10-20T07:27:30.589Z,4.30
2022-10-20T07:29:36.793Z,3.67
2022-10-20T07:31:42.223Z,4.03
2022-10-20T07:33:56.511Z,3.88
2022-10-20T07:38:20.689Z,4.10
2022-10-20T07:42:30.289Z,4.00
2022-10-20T07:46:34.226Z,3.90
2022-10-20T07:48:36.823Z,3.90
2022-10-20T07:50:40.513Z,3.33
2022-10-20T07:52:50.844Z,3.75
2022-10-20T07:55:01.620Z,2.90
2022-10-20T07:57:15.379Z,3.60
2022-10-20T07:59:18.468Z,3.40
2022-10-20T08:01:20.918Z,3.45
2022-10-20T08:03:26.307Z,3.45
2022-10-20T08:05:29.753Z,3.60
2022-10-20T08:07:31.968Z,3.80
2022-10-20T08:09:34.243Z,3.70
2022-10-20T08:11:38.072Z,3.30
2022-10-20T08:13:41.224Z,3.45
2022-10-20T08:15:44.515Z,4.00
2022-10-20T08:17:46.814Z,3.83
2022-10-20T08:20:08.835Z,4.30
2022-10-20T08:22:11.021Z,3.30
2022-10-20T08:24:13.193Z,3.40
2022-10-20T08:26:23.438Z,3.03
2022-10-20T08:28:26.342Z,2.72
2022-10-20T08:30:30.756Z,2.72
2022-10-20T08:32:32.937Z,2.90
2022-10-20T08:34:35.265Z,3.80
2022-10-20T08:36:37.471Z,4.05
2022-10-20T08:44:49.102Z,2.40
2022-10-20T08:46:51.358Z,2.28
2022-10-20T08:48:53.546Z,3.03
2022-10-20T08:50:56.231Z,2.40
2022-10-20T08:53:01.034Z,2.97
2022-10-20T08:55:05.748Z,2.63
2022-10-20T08:57:26.743Z,2.30
2022-10-20T08:59:39.812Z,2.47
2022-10-20T09:01:42.696Z,2.88
2022-10-20T09:04:05.157Z,2.22
2022-10-20T09:06:14.806Z,3.95
2022-10-20T09:08:17.584Z,3.15
2022-10-20T09:10:35.930Z,4.05
2022-10-20T09:12:41.769Z,4.10
2022-10-20T09:14:44.115Z,5.55
2022-10-20T09:16:59.925Z,3.70
2022-10-20T09:19:03.227Z,3.90
2022-10-20T09:23:35.487Z,3.43
2022-10-20T09:25:36.249Z,3.67
2022-10-20T09:27:43.128Z,4.07
2022-10-20T09:29:45.664Z,3.70
2022-10-20T09:33:54.586Z,2.50
2022-10-20T09:38:20.035Z,2.67
2022-10-20T09:40:23.401Z,2.90
2022-10-20T09:42:34.750Z,2.70
2022-10-20T09:44:52.782Z,2.83
2022-10-20T09:46:55.266Z,2.83
2022-10-20T09:49:00.020Z,3.85
2022-10-20T09:51:02.970Z,2.72
2022-10-20T09:53:17.127Z,3.33
2022-10-20T09:55:30.236Z,3.03
2022-10-20T09:57:32.510Z,3.17
2022-10-20T10:01:54.040Z,2.42
2022-10-20T10:04:02.145Z,2.33
2022-10-20T10:06:28.073Z,2.40
2022-10-20T10:08:44.952Z,2.65
2022-10-20T10:10:59.714Z,2.17
2022-10-20T10:15:24.510Z,2.08
2022-10-20T10:17:38.674Z,2.30
2022-10-20T10:19:52.478Z,1.98
2022-10-20T10:22:00.596Z,2.10
2022-10-20T10:24:04.704Z,2.90
2022-10-20T10:26:36.807Z,3.90
2022-10-20T10:28:40.773Z,6.25
2022-10-20T10:30:46.832Z,2.63
2022-10-20T10:32:51.684Z,2.30
2022-10-20T10:35:23.063Z,2.45
2022-10-20T10:37:25.193Z,2.00
2022-10-20T10:39:33.620Z,3.15
2022-10-20T10:42:04.234Z,2.00
2022-10-20T10:44:18.150Z,2.13
2022-10-20T10:46:26.971Z,2.00
2022-10-20T10:48:49.714Z,2.03
2022-10-20T10:50:54.606Z,2.00
2022-10-20T10:53:29.975Z,2.20
2022-10-20T10:55:48.705Z,1.73
2022-10-20T10:58:39.682Z,2.28
2022-10-20T11:00:51.066Z,2.38
2022-10-20T11:03:00.119Z,2.45
2022-10-20T11:05:33.062Z,2.75
2022-10-20T11:08:02.799Z,2.42
2022-10-20T11:10:35.059Z,2.45
2022-10-20T11:13:06.730Z,2.70
2022-10-20T11:15:27.612Z,2.50
2022-10-20T11:17:35.797Z,1.83
2022-10-20T11:19:49.752Z,2.33
2022-10-20T11:22:36.039Z,2.83
2022-10-20T11:24:41.414Z,1.98
2022-10-20T11:26:47.676Z,2.30
2022-10-20T11:28:54.386Z,2.28
2022-10-20T11:30:59.448Z,2.30
2022-10-20T11:33:09.259Z,1.85
2022-10-20T11:35:33.741Z,1.30
2022-10-20T11:37:47.862Z,1.73
2022-10-20T11:40:07.779Z,1.85
2022-10-20T11:42:51.559Z,1.88
2022-10-20T11:44:55.847Z,1.88
2022-10-20T11:47:05.565Z,1.70
2022-10-20T11:49:12.333Z,1.90
2022-10-20T11:51:26.451Z,1.73
2022-10-20T11:53:59.655Z,2.00
2022-10-20T11:56:33.207Z,1.48
2022-10-20T11:58:41.175Z,2.03
2022-10-20T12:01:08.118Z,1.70
2022-10-20T12:03:47.090Z,2.10
2022-10-20T12:06:27.208Z,1.73
2022-10-20T12:09:00.233Z,1.88
2022-10-20T12:11:05.275Z,1.45
2022-10-20T12:13:40.030Z,1.55
2022-10-20T12:15:53.886Z,1.45
2022-10-20T12:18:07.511Z,1.30
2022-10-20T12:20:21.898Z,1.85
2022-10-20T12:22:24.253Z,1.45
2022-10-20T12:24:58.244Z,2.08
2022-10-20T12:27:04.299Z,1.33
2022-10-20T12:29:33.032Z,1.42
2022-10-20T12:32:19.280Z,1.60
2022-10-20T12:35:18.810Z,1.40
2022-10-20T12:37:32.827Z,1.73
2022-10-20T12:39:52.702Z,2.03
2022-10-20T12:41:56.748Z,1.40
2022-10-20T12:44:21.674Z,1.05
2022-10-20T12:46:42.965Z,1.67
2022-10-20T12:48:48.587Z,1.52
2022-10-20T12:50:52.391Z,1.58
2022-10-20T12:52:54.925Z,1.13
2022-10-20T12:55:04.867Z,1.20
2022-10-20T12:57:41.872Z,1.58
2022-10-20T12:59:44.198Z,1.83
2022-10-20T13:02:11.199Z,1.95
2022-10-20T13:04:52.001Z,1.63
2022-10-20T13:06:54.207Z,2.08
2022-10-20T13:09:05.083Z,1.63
2022-10-20T13:11:38.143Z,1.88
2022-10-20T13:14:12.225Z,2.22
2022-10-20T13:16:21.487Z,1.38
2022-10-20T13:18:32.929Z,1.80
2022-10-20T13:20:55.097Z,1.40
2022-10-20T13:25:06.742Z,1.30
2022-10-20T13:27:10.005Z,1.38
2022-10-20T13:29:18.916Z,2.60
2022-10-20T13:31:39.772Z,2.00
2022-10-20T13:34:07.594Z,1.55
2022-10-20T13:36:42.647Z,1.30
2022-10-20T13:39:02.356Z,1.65
2022-10-20T13:41:38.087Z,2.03
2022-10-20T13:43:48.668Z,1.42
2022-10-20T13:46:11.661Z,1.45
2022-10-20T13:48:59.151Z,1.48
2022-10-20T13:51:11.211Z,1.40
2022-10-20T13:53:37.045Z,1.65
2022-10-20T13:56:04.193Z,2.05
2022-10-20T13:58:20.381Z,2.45
2022-10-20T14:00:24.932Z,2.47
2022-10-20T14:02:30.680Z,3.58
2022-10-20T14:04:37.111Z,1.88
2022-10-20T14:06:39.557Z,1.60
2022-10-20T14:11:06.874Z,1.73
2022-10-20T14:13:14.309Z,3.75
2022-10-20T14:15:27.145Z,2.17
2022-10-20T14:17:30.283Z,1.95
2022-10-20T14:19:33.744Z,2.10
2022-10-20T14:21:49.381Z,2.40
2022-10-20T14:23:52.638Z,3.00
2022-10-20T14:25:56.269Z,2.17
2022-10-20T14:28:00.354Z,2.67
2022-10-20T14:30:09.456Z,2.22
2022-10-20T14:32:22.301Z,2.13
2022-10-20T14:34:31.255Z,3.00
2022-10-20T14:36:36.777Z,2.78
2022-10-20T14:38:39.213Z,2.85
2022-10-20T14:42:47.598Z,2.78
2022-10-20T14:44:51.453Z,3.13
2022-10-20T14:46:56.867Z,2.80
2022-10-20T14:49:00.835Z,2.70
2022-10-20T14:51:23.479Z,2.90
2022-10-20T14:53:34.944Z,2.90
2022-10-20T14:55:37.473Z,2.00
2022-10-20T14:59:59.274Z,2.38
2022-10-20T15:02:08.337Z,2.92
2022-10-20T15:04:26.743Z,2.95
2022-10-20T15:06:28.900Z,3.08
2022-10-20T15:08:31.180Z,3.70
2022-10-20T15:10:33.388Z,2.70
2022-10-20T15:12:49.201Z,2.80
2022-10-20T15:14:53.961Z,2.75
2022-10-20T15:16:56.160Z,3.75
2022-10-20T15:19:30.072Z,2.85
2022-10-20T15:21:32.852Z,2.70
2022-10-20T15:23:35.028Z,6.15
2022-10-20T15:27:50.412Z,2.20
2022-10-20T15:29:52.807Z,2.22
2022-10-20T15:31:55.025Z,3.05
2022-10-20T15:33:58.873Z,2.40
2022-10-20T15:36:01.929Z,2.88
2022-10-20T15:38:04.083Z,2.80
2022-10-20T15:40:06.717Z,2.83
2022-10-20T15:42:12.147Z,2.53
2022-10-20T15:44:17.588Z,2.75
2022-10-20T15:46:20.479Z,2.95
2022-10-20T15:48:27.124Z,2.75
2022-10-20T15:50:29.908Z,2.10
2022-10-20T15:52:32.500Z,2.00
2022-10-20T15:54:34.633Z,1.88
2022-10-20T15:56:37.068Z,2.53
2022-10-20T15:58:39.957Z,2.30
2022-10-20T16:00:42.637Z,2.10
2022-10-20T16:04:47.153Z,1.92
2022-10-20T16:06:53.069Z,2.10
2022-10-20T16:08:58.368Z,1.75
2022-10-20T16:11:00.489Z,1.95
2022-10-20T16:13:03.443Z,1.83
2022-10-20T16:15:10.481Z,1.42
2022-10-20T16:17:15.027Z,1.70
2022-10-20T16:19:17.046Z,1.60
2022-10-20T16:21:19.369Z,1.33
2022-10-20T16:23:22.441Z,1.98
2022-10-20T16:27:26.891Z,1.95
2022-10-20T16:31:31.806Z,1.65
2022-10-20T16:33:34.962Z,2.45
2022-10-20T16:35:44.119Z,1.80
2022-10-20T16:37:46.391Z,1.70
2022-10-20T16:41:52.245Z,2.33
2022-10-20T16:43:57.495Z,1.65
2022-10-20T16:46:08.618Z,1.75
2022-10-20T16:50:15.753Z,2.42
2022-10-20T16:52:18.299Z,2.08
2022-10-20T16:54:21.280Z,2.08
2022-10-20T16:56:24.947Z,2.28
2022-10-20T16:58:27.880Z,2.63
2022-10-20T17:00:30.357Z,2.80
2022-10-20T17:04:38.811Z,2.45
2022-10-20T17:06:41.075Z,2.63
2022-10-20T17:10:47.756Z,2.42
2022-10-20T17:14:53.115Z,1.98
2022-10-20T17:18:59.866Z,2.40
2022-10-20T17:21:02.466Z,2.40
2022-10-20T17:23:05.338Z,2.20
2022-10-20T17:25:15.176Z,2.58
2022-10-20T17:27:17.686Z,2.15
2022-10-20T17:29:25.925Z,2.25
2022-10-20T17:31:32.038Z,2.25
2022-10-20T17:33:36.964Z,2.60
2022-10-20T17:35:39.663Z,2.13
2022-10-20T17:37:42.029Z,2.30
2022-10-20T17:41:47.243Z,2.63
2022-10-20T17:43:49.730Z,2.83
2022-10-20T17:46:03.688Z,3.30
2022-10-20T17:48:06.331Z,2.90
2022-10-20T17:52:11.710Z,2.42
2022-10-20T17:54:14.758Z,2.33
2022-10-20T17:56:19.055Z,2.28
2022-10-20T17:58:21.473Z,2.50
2022-10-20T18:00:43.990Z,2.53
2022-10-20T18:04:52.577Z,1.88
2022-10-20T18:06:55.567Z,2.15
2022-10-20T18:09:00.590Z,1.60
2022-10-20T18:11:03.245Z,1.92
2022-10-20T18:13:06.053Z,1.80
2022-10-20T18:15:09.334Z,1.70
2022-10-20T18:17:11.894Z,1.77
2022-10-20T18:21:19.947Z,2.03
2022-10-20T18:23:29.772Z,2.03
2022-10-20T18:25:36.454Z,1.70
2022-10-20T18:27:47.500Z,1.70
2022-10-20T18:29:58.259Z,1.80
2022-10-20T18:32:00.633Z,2.20
2022-10-20T18:34:18.665Z,1.80
2022-10-20T18:36:21.532Z,2.38
2022-10-20T18:38:23.869Z,2.20
2022-10-20T18:40:26.390Z,1.80
2022-10-20T18:44:54.548Z,2.00
2022-10-20T18:46:57.864Z,2.20
2022-10-20T18:49:07.205Z,2.47
2022-10-20T18:51:12.158Z,2.47
2022-10-20T18:53:16.750Z,1.88
2022-10-20T18:55:19.004Z,2.17
2022-10-20T18:57:21.148Z,2.40
2022-10-20T18:59:23.362Z,2.03
2022-10-20T19:01:29.318Z,2.20
2022-10-20T19:03:32.255Z,2.60
2022-10-20T19:05:37.738Z,2.25
2022-10-20T19:07:40.092Z,2.63
2022-10-20T19:09:42.595Z,2.15
2022-10-20T19:11:46.032Z,2.42
2022-10-20T19:13:48.713Z,2.50
2022-10-20T19:15:51.091Z,2.50
2022-10-20T19:18:11.461Z,2.30
2022-10-20T19:20:13.565Z,2.35
2022-10-20T19:22:16.897Z,3.15
2022-10-20T19:24:22.691Z,2.75
2022-10-20T19:26:57.004Z,2.70
2022-10-20T19:29:15.202Z,2.95
2022-10-20T19:31:38.775Z,3.47
2022-10-20T19:33:40.958Z,2.70
2022-10-20T19:35:43.147Z,2.72
2022-10-20T19:38:30.646Z,3.00
2022-10-20T19:40:39.517Z,3.25
2022-10-20T19:42:41.615Z,3.58
2022-10-20T19:44:45.476Z,3.08
2022-10-20T19:46:50.410Z,3.10
2022-10-20T19:48:52.824Z,3.13
2022-10-20T19:52:58.839Z,3.38
2022-10-20T19:55:01.414Z,2.80
2022-10-20T19:57:06.404Z,3.00
2022-10-20T19:59:09.019Z,3.40
2022-10-20T20:01:11.622Z,2.78
2022-10-20T20:03:14.390Z,3.95
2022-10-20T20:05:16.880Z,2.55
2022-10-20T20:09:21.364Z,2.90
2022-10-20T20:11:30.908Z,3.55
2022-10-20T20:13:33.450Z,3.53
2022-10-20T20:17:37.985Z,2.65
2022-10-20T20:19:40.719Z,2.85
2022-10-20T20:21:43.271Z,2.90
2022-10-20T20:24:01.618Z,3.35
2022-10-20T20:26:05.240Z,2.95
2022-10-20T20:28:08.522Z,3.00
2022-10-20T20:30:10.959Z,2.63
2022-10-20T20:34:15.797Z,2.77
2022-10-20T20:36:17.860Z,2.95
2022-10-20T20:38:19.945Z,2.92
2022-10-20T20:40:22.158Z,2.83
2022-10-20T20:44:26.469Z,3.00
2022-10-20T20:46:31.363Z,3.13
2022-10-20T20:48:36.168Z,3.35
2022-10-20T20:50:38.290Z,2.50
2022-10-20T20:52:40.344Z,3.08
2022-10-20T20:54:46.013Z,2.97
2022-10-20T20:56:51.097Z,3.15
2022-10-20T20:58:55.338Z,3.10
2022-10-20T21:01:10.704Z,3.30
2022-10-20T21:03:13.913Z,3.17
2022-10-20T21:05:16.122Z,3.72
2022-10-20T21:07:18.576Z,2.88
2022-10-20T21:09:21.439Z,3.83
2022-10-20T21:11:26.962Z,4.05
2022-10-20T21:13:32.040Z,3.65
2022-10-20T21:15:34.450Z,3.60
2022-10-20T21:17:36.545Z,3.50
2022-10-20T21:19:38.786Z,3.60
2022-10-20T21:21:50.726Z,3.30
2022-10-20T21:23:53.945Z,2.80
2022-10-20T21:25:56.186Z,2.70
2022-10-20T21:28:01.003Z,2.85
2022-10-20T21:30:03.602Z,2.65
2022-10-20T21:32:05.955Z,2.22
2022-10-20T21:34:08.455Z,2.60
2022-10-20T21:38:17.206Z,2.58
2022-10-20T21:40:19.874Z,2.45
2022-10-20T21:42:22.004Z,2.00
2022-10-20T21:44:24.170Z,2.15
2022-10-20T21:46:35.950Z,2.42
2022-10-20T21:48:38.130Z,2.70
2022-10-20T21:50:40.182Z,2.60
2022-10-20T21:52:42.437Z,2.92
2022-10-20T21:56:47.319Z,3.17
2022-10-20T21:58:49.469Z,2.70
2022-10-20T22:00:54.151Z,3.00
2022-10-20T22:02:56.370Z,2.60
2022-10-20T22:05:01.087Z,3.03
2022-10-20T22:07:03.345Z,3.33
2022-10-20T22:11:13.488Z,2.45
2022-10-20T22:13:15.754Z,3.00
2022-10-20T22:15:17.851Z,3.38
2022-10-20T22:17:21.344Z,3.15
2022-10-20T22:19:24.559Z,3.25
2022-10-20T22:21:27.878Z,3.05
2022-10-20T22:23:30.195Z,3.03
2022-10-20T22:25:38.527Z,3.10
2022-10-20T22:27:42.609Z,3.22
2022-10-20T22:29:45.307Z,2.60
2022-10-20T22:33:53.977Z,2.97
2022-10-20T22:35:56.100Z,3.00
2022-10-20T22:37:58.152Z,3.30
2022-10-20T22:42:02.886Z,2.85
2022-10-20T22:44:06.069Z,2.80
2022-10-20T22:46:09.109Z,2.80
2022-10-20T22:48:11.316Z,2.55
2022-10-20T22:50:13.483Z,3.00
2022-10-20T22:52:15.656Z,3.53
2022-10-20T22:54:17.791Z,3.05
2022-10-20T22:56:22.311Z,2.80
2022-10-20T22:58:24.485Z,2.80
2022-10-20T23:00:26.689Z,3.20
2022-10-20T23:02:29.781Z,2.88
2022-10-20T23:04:32.107Z,3.00
2022-10-20T23:06:34.794Z,3.20
2022-10-20T23:08:44.843Z,3.08
2022-10-20T23:10:56.611Z,2.92
2022-10-20T23:12:58.799Z,2.70
2022-10-20T23:15:01.051Z,2.80
2022-10-20T23:17:06.330Z,2.83
2022-10-20T23:19:09.469Z,3.28
2022-10-20T23:23:14.706Z,3.28
2022-10-20T23:25:17.457Z,3.38
2022-10-20T23:27:19.894Z,3.00
2022-10-20T23:31:24.605Z,3.60
2022-10-20T23:33:26.712Z,3.45
2022-10-20T23:35:29.333Z,3.05
2022-10-20T23:37:32.219Z,3.38
2022-10-20T23:39:34.844Z,3.45
2022-10-20T23:41:37.027Z,3.22
2022-10-20T23:43:39.523Z,2.97
2022-10-20T23:47:45.920Z,3.03
2022-10-20T23:49:48.922Z,3.20
2022-10-20T23:51:51.053Z,2.75
2022-10-20T23:53:53.309Z,3.05
2022-10-20T23:57:57.690Z,2.83
